sensor_id;sensor_type;location;lat;lon;timestamp;P1;durP1;ratioP1;P2;durP2;ratioP2
11614;SDS011;5863;52.832;4.758;2023-07-22T00:01:00;8.82;;;6.05;;
11614;SDS011;5863;52.832;4.758;2023-07-22T00:03:26;7.07;;;5.82;;
11614;SDS011;5863;52.832;4.758;2023-07-22T00:06:03;9.43;;;6.47;;
11614;SDS011;5863;52.832;4.758;2023-07-22T00:08:32;9.23;;;6.38;;
11614;SDS011;5863;52.832;4.758;2023-07-22T00:11:00;8.57;;;6.47;;
11614;SDS011;5863;52.832;4.758;2023-07-22T00:13:26;10.90;;;7.07;;
11614;SDS011;5863;52.832;4.758;2023-07-22T00:15:54;10.93;;;6.95;;
11614;SDS011;5863;52.832;4.758;2023-07-22T00:18:21;9.25;;;7.35;;
11614;SDS011;5863;52.832;4.758;2023-07-22T00:20:49;9.50;;;7.22;;
11614;SDS011;5863;52.832;4.758;2023-07-22T00:23:16;10.35;;;7.60;;
11614;SDS011;5863;52.832;4.758;2023-07-22T00:25:44;11.35;;;8.38;;
11614;SDS011;5863;52.832;4.758;2023-07-22T00:28:11;12.05;;;8.30;;
11614;SDS011;5863;52.832;4.758;2023-07-22T00:30:38;12.63;;;8.35;;
11614;SDS011;5863;52.832;4.758;2023-07-22T00:33:05;10.95;;;7.82;;
11614;SDS011;5863;52.832;4.758;2023-07-22T00:35:32;11.40;;;7.88;;
11614;SDS011;5863;52.832;4.758;2023-07-22T00:37:58;12.35;;;7.55;;
11614;SDS011;5863;52.832;4.758;2023-07-22T00:40:26;12.23;;;7.60;;
11614;SDS011;5863;52.832;4.758;2023-07-22T00:42:54;15.07;;;8.63;;
11614;SDS011;5863;52.832;4.758;2023-07-22T00:45:21;12.27;;;8.10;;
11614;SDS011;5863;52.832;4.758;2023-07-22T00:47:49;13.75;;;7.95;;
11614;SDS011;5863;52.832;4.758;2023-07-22T00:50:16;16.10;;;8.23;;
11614;SDS011;5863;52.832;4.758;2023-07-22T00:52:44;12.30;;;7.63;;
11614;SDS011;5863;52.832;4.758;2023-07-22T00:55:11;13.93;;;8.25;;
11614;SDS011;5863;52.832;4.758;2023-07-22T00:57:37;10.65;;;7.78;;
11614;SDS011;5863;52.832;4.758;2023-07-22T01:00:06;12.52;;;7.50;;
11614;SDS011;5863;52.832;4.758;2023-07-22T01:02:36;17.33;;;9.20;;
11614;SDS011;5863;52.832;4.758;2023-07-22T01:05:03;13.10;;;8.13;;
11614;SDS011;5863;52.832;4.758;2023-07-22T01:07:30;12.93;;;8.23;;
11614;SDS011;5863;52.832;4.758;2023-07-22T01:10:00;13.55;;;7.60;;
11614;SDS011;5863;52.832;4.758;2023-07-22T01:12:28;13.05;;;7.78;;
11614;SDS011;5863;52.832;4.758;2023-07-22T01:14:54;14.07;;;7.93;;
11614;SDS011;5863;52.832;4.758;2023-07-22T01:17:22;9.43;;;7.05;;
11614;SDS011;5863;52.832;4.758;2023-07-22T01:19:49;13.00;;;7.35;;
11614;SDS011;5863;52.832;4.758;2023-07-22T01:22:17;12.15;;;8.43;;
11614;SDS011;5863;52.832;4.758;2023-07-22T01:24:45;11.07;;;7.88;;
11614;SDS011;5863;52.832;4.758;2023-07-22T01:27:12;11.93;;;7.80;;
11614;SDS011;5863;52.832;4.758;2023-07-22T01:29:41;12.80;;;8.15;;
11614;SDS011;5863;52.832;4.758;2023-07-22T01:32:09;14.63;;;8.57;;
11614;SDS011;5863;52.832;4.758;2023-07-22T01:34:35;17.20;;;9.07;;
11614;SDS011;5863;52.832;4.758;2023-07-22T01:37:02;15.35;;;9.18;;
11614;SDS011;5863;52.832;4.758;2023-07-22T01:39:30;11.38;;;8.38;;
11614;SDS011;5863;52.832;4.758;2023-07-22T01:42:00;12.13;;;7.07;;
11614;SDS011;5863;52.832;4.758;2023-07-22T01:44:27;12.95;;;7.43;;
11614;SDS011;5863;52.832;4.758;2023-07-22T01:46:54;8.35;;;6.68;;
11614;SDS011;5863;52.832;4.758;2023-07-22T01:49:22;8.45;;;5.97;;
11614;SDS011;5863;52.832;4.758;2023-07-22T01:51:49;8.18;;;5.90;;
11614;SDS011;5863;52.832;4.758;2023-07-22T01:54:16;8.85;;;5.50;;
11614;SDS011;5863;52.832;4.758;2023-07-22T01:56:42;8.57;;;5.63;;
11614;SDS011;5863;52.832;4.758;2023-07-22T01:59:10;8.23;;;5.70;;
11614;SDS011;5863;52.832;4.758;2023-07-22T02:01:38;6.68;;;5.68;;
11614;SDS011;5863;52.832;4.758;2023-07-22T02:04:07;7.13;;;5.55;;
11614;SDS011;5863;52.832;4.758;2023-07-22T02:06:33;6.68;;;5.78;;
11614;SDS011;5863;52.832;4.758;2023-07-22T02:09:00;8.63;;;5.78;;
11614;SDS011;5863;52.832;4.758;2023-07-22T02:11:33;7.60;;;5.40;;
11614;SDS011;5863;52.832;4.758;2023-07-22T02:14:00;7.35;;;5.43;;
11614;SDS011;5863;52.832;4.758;2023-07-22T02:16:28;8.57;;;5.72;;
11614;SDS011;5863;52.832;4.758;2023-07-22T02:18:55;7.75;;;5.63;;
11614;SDS011;5863;52.832;4.758;2023-07-22T02:21:22;7.80;;;5.53;;
11614;SDS011;5863;52.832;4.758;2023-07-22T02:23:48;8.73;;;6.30;;
11614;SDS011;5863;52.832;4.758;2023-07-22T02:26:15;8.63;;;6.15;;
11614;SDS011;5863;52.832;4.758;2023-07-22T02:28:42;9.05;;;6.28;;
11614;SDS011;5863;52.832;4.758;2023-07-22T02:31:11;8.77;;;6.45;;
11614;SDS011;5863;52.832;4.758;2023-07-22T02:33:39;8.30;;;6.20;;
11614;SDS011;5863;52.832;4.758;2023-07-22T02:36:06;9.93;;;6.43;;
11614;SDS011;5863;52.832;4.758;2023-07-22T02:38:33;10.13;;;6.78;;
11614;SDS011;5863;52.832;4.758;2023-07-22T02:41:03;9.57;;;6.10;;
11614;SDS011;5863;52.832;4.758;2023-07-22T02:43:32;8.82;;;5.25;;
11614;SDS011;5863;52.832;4.758;2023-07-22T02:45:59;8.73;;;5.72;;
11614;SDS011;5863;52.832;4.758;2023-07-22T02:48:27;8.27;;;5.88;;
11614;SDS011;5863;52.832;4.758;2023-07-22T02:50:55;7.90;;;5.78;;
11614;SDS011;5863;52.832;4.758;2023-07-22T02:53:27;8.93;;;5.80;;
11614;SDS011;5863;52.832;4.758;2023-07-22T02:55:54;13.77;;;7.68;;
11614;SDS011;5863;52.832;4.758;2023-07-22T02:58:21;12.90;;;7.82;;
11614;SDS011;5863;52.832;4.758;2023-07-22T03:00:48;13.45;;;8.80;;
11614;SDS011;5863;52.832;4.758;2023-07-22T03:03:14;11.20;;;8.32;;
11614;SDS011;5863;52.832;4.758;2023-07-22T03:05:41;15.20;;;8.77;;
11614;SDS011;5863;52.832;4.758;2023-07-22T03:08:09;11.93;;;8.55;;
11614;SDS011;5863;52.832;4.758;2023-07-22T03:10:36;12.48;;;8.50;;
11614;SDS011;5863;52.832;4.758;2023-07-22T03:13:02;13.98;;;8.10;;
11614;SDS011;5863;52.832;4.758;2023-07-22T03:15:29;11.90;;;7.78;;
11614;SDS011;5863;52.832;4.758;2023-07-22T03:17:56;14.60;;;8.70;;
11614;SDS011;5863;52.832;4.758;2023-07-22T03:20:24;10.63;;;7.93;;
11614;SDS011;5863;52.832;4.758;2023-07-22T03:22:51;12.73;;;8.07;;
11614;SDS011;5863;52.832;4.758;2023-07-22T03:25:19;12.23;;;7.93;;
11614;SDS011;5863;52.832;4.758;2023-07-22T03:27:46;10.80;;;7.15;;
11614;SDS011;5863;52.832;4.758;2023-07-22T03:30:13;10.35;;;7.38;;
11614;SDS011;5863;52.832;4.758;2023-07-22T03:32:43;12.63;;;7.80;;
11614;SDS011;5863;52.832;4.758;2023-07-22T03:35:10;9.98;;;6.60;;
11614;SDS011;5863;52.832;4.758;2023-07-22T03:37:37;10.20;;;6.97;;
11614;SDS011;5863;52.832;4.758;2023-07-22T03:40:04;10.68;;;7.43;;
11614;SDS011;5863;52.832;4.758;2023-07-22T03:42:37;8.27;;;6.13;;
11614;SDS011;5863;52.832;4.758;2023-07-22T03:45:05;8.63;;;6.07;;
11614;SDS011;5863;52.832;4.758;2023-07-22T03:47:33;9.48;;;6.63;;
11614;SDS011;5863;52.832;4.758;2023-07-22T03:50:00;8.02;;;5.95;;
11614;SDS011;5863;52.832;4.758;2023-07-22T03:52:26;8.68;;;5.50;;
11614;SDS011;5863;52.832;4.758;2023-07-22T03:54:53;9.25;;;5.95;;
11614;SDS011;5863;52.832;4.758;2023-07-22T03:57:24;7.88;;;6.07;;
11614;SDS011;5863;52.832;4.758;2023-07-22T03:59:52;9.40;;;6.20;;
11614;SDS011;5863;52.832;4.758;2023-07-22T04:02:19;9.88;;;6.18;;
11614;SDS011;5863;52.832;4.758;2023-07-22T04:04:46;9.90;;;5.97;;
11614;SDS011;5863;52.832;4.758;2023-07-22T04:07:12;10.98;;;6.05;;
11614;SDS011;5863;52.832;4.758;2023-07-22T04:09:38;9.93;;;6.35;;
11614;SDS011;5863;52.832;4.758;2023-07-22T04:12:06;8.55;;;5.78;;
11614;SDS011;5863;52.832;4.758;2023-07-22T04:14:33;6.40;;;5.32;;
11614;SDS011;5863;52.832;4.758;2023-07-22T04:17:02;6.20;;;5.43;;
11614;SDS011;5863;52.832;4.758;2023-07-22T04:19:29;6.03;;;5.25;;
11614;SDS011;5863;52.832;4.758;2023-07-22T04:21:56;9.40;;;5.70;;
11614;SDS011;5863;52.832;4.758;2023-07-22T04:24:24;5.95;;;5.05;;
11614;SDS011;5863;52.832;4.758;2023-07-22T04:26:51;7.25;;;5.00;;
11614;SDS011;5863;52.832;4.758;2023-07-22T04:29:17;8.25;;;4.85;;
11614;SDS011;5863;52.832;4.758;2023-07-22T04:31:45;5.57;;;4.78;;
11614;SDS011;5863;52.832;4.758;2023-07-22T04:34:13;7.50;;;4.90;;
11614;SDS011;5863;52.832;4.758;2023-07-22T04:36:39;7.72;;;5.18;;
11614;SDS011;5863;52.832;4.758;2023-07-22T04:39:06;7.22;;;5.05;;
11614;SDS011;5863;52.832;4.758;2023-07-22T04:41:33;6.05;;;4.80;;
11614;SDS011;5863;52.832;4.758;2023-07-22T04:44:00;5.32;;;4.75;;
11614;SDS011;5863;52.832;4.758;2023-07-22T04:46:30;7.03;;;5.03;;
11614;SDS011;5863;52.832;4.758;2023-07-22T04:48:56;7.28;;;4.40;;
11614;SDS011;5863;52.832;4.758;2023-07-22T04:51:25;5.57;;;4.57;;
11614;SDS011;5863;52.832;4.758;2023-07-22T04:53:52;5.45;;;4.50;;
11614;SDS011;5863;52.832;4.758;2023-07-22T04:56:19;5.80;;;4.15;;
11614;SDS011;5863;52.832;4.758;2023-07-22T04:58:46;7.28;;;4.70;;
11614;SDS011;5863;52.832;4.758;2023-07-22T05:01:14;8.15;;;4.43;;
11614;SDS011;5863;52.832;4.758;2023-07-22T05:03:41;6.00;;;4.22;;
11614;SDS011;5863;52.832;4.758;2023-07-22T05:06:09;5.30;;;4.05;;
11614;SDS011;5863;52.832;4.758;2023-07-22T05:08:36;5.50;;;4.40;;
11614;SDS011;5863;52.832;4.758;2023-07-22T05:11:03;4.93;;;4.15;;
11614;SDS011;5863;52.832;4.758;2023-07-22T05:13:30;4.50;;;3.70;;
11614;SDS011;5863;52.832;4.758;2023-07-22T05:15:57;5.40;;;4.18;;
11614;SDS011;5863;52.832;4.758;2023-07-22T05:18:24;5.90;;;4.13;;
11614;SDS011;5863;52.832;4.758;2023-07-22T05:20:50;5.40;;;4.10;;
11614;SDS011;5863;52.832;4.758;2023-07-22T05:23:17;4.80;;;4.22;;
11614;SDS011;5863;52.832;4.758;2023-07-22T05:25:49;5.13;;;4.22;;
11614;SDS011;5863;52.832;4.758;2023-07-22T05:28:17;8.48;;;4.50;;
11614;SDS011;5863;52.832;4.758;2023-07-22T05:30:43;6.65;;;4.28;;
11614;SDS011;5863;52.832;4.758;2023-07-22T05:33:10;12.15;;;4.13;;
11614;SDS011;5863;52.832;4.758;2023-07-22T05:35:37;7.03;;;4.93;;
11614;SDS011;5863;52.832;4.758;2023-07-22T05:38:04;6.15;;;4.22;;
11614;SDS011;5863;52.832;4.758;2023-07-22T05:40:31;6.35;;;4.68;;
11614;SDS011;5863;52.832;4.758;2023-07-22T05:42:59;5.72;;;3.67;;
11614;SDS011;5863;52.832;4.758;2023-07-22T05:45:26;5.60;;;3.97;;
11614;SDS011;5863;52.832;4.758;2023-07-22T05:47:52;5.05;;;3.80;;
11614;SDS011;5863;52.832;4.758;2023-07-22T05:50:19;6.80;;;3.40;;
11614;SDS011;5863;52.832;4.758;2023-07-22T05:52:46;3.90;;;3.47;;
11614;SDS011;5863;52.832;4.758;2023-07-22T05:55:13;5.68;;;3.80;;
11614;SDS011;5863;52.832;4.758;2023-07-22T05:57:40;7.00;;;3.78;;
11614;SDS011;5863;52.832;4.758;2023-07-22T06:00:08;5.28;;;3.58;;
11614;SDS011;5863;52.832;4.758;2023-07-22T06:02:38;5.10;;;3.65;;
11614;SDS011;5863;52.832;4.758;2023-07-22T06:05:05;8.00;;;3.40;;
11614;SDS011;5863;52.832;4.758;2023-07-22T06:07:31;5.43;;;3.40;;
11614;SDS011;5863;52.832;4.758;2023-07-22T06:09:58;4.00;;;3.17;;
11614;SDS011;5863;52.832;4.758;2023-07-22T06:12:25;5.35;;;3.25;;
11614;SDS011;5863;52.832;4.758;2023-07-22T06:14:52;6.72;;;3.55;;
11614;SDS011;5863;52.832;4.758;2023-07-22T06:17:20;4.50;;;2.95;;
11614;SDS011;5863;52.832;4.758;2023-07-22T06:19:46;7.28;;;3.50;;
11614;SDS011;5863;52.832;4.758;2023-07-22T06:22:13;7.57;;;3.55;;
11614;SDS011;5863;52.832;4.758;2023-07-22T06:24:40;4.38;;;3.42;;
11614;SDS011;5863;52.832;4.758;2023-07-22T06:27:06;5.70;;;3.40;;
11614;SDS011;5863;52.832;4.758;2023-07-22T06:29:33;4.43;;;3.22;;
11614;SDS011;5863;52.832;4.758;2023-07-22T06:32:00;4.00;;;3.00;;
11614;SDS011;5863;52.832;4.758;2023-07-22T06:34:29;4.25;;;3.30;;
11614;SDS011;5863;52.832;4.758;2023-07-22T06:36:59;4.05;;;2.72;;
11614;SDS011;5863;52.832;4.758;2023-07-22T06:39:27;3.72;;;3.08;;
11614;SDS011;5863;52.832;4.758;2023-07-22T06:41:54;5.10;;;3.08;;
11614;SDS011;5863;52.832;4.758;2023-07-22T06:44:21;4.68;;;3.05;;
11614;SDS011;5863;52.832;4.758;2023-07-22T06:46:47;5.63;;;3.42;;
11614;SDS011;5863;52.832;4.758;2023-07-22T06:49:14;4.18;;;3.17;;
11614;SDS011;5863;52.832;4.758;2023-07-22T06:51:42;4.97;;;2.97;;
11614;SDS011;5863;52.832;4.758;2023-07-22T06:54:09;4.60;;;3.00;;
11614;SDS011;5863;52.832;4.758;2023-07-22T06:56:36;6.35;;;3.28;;
11614;SDS011;5863;52.832;4.758;2023-07-22T06:59:02;5.68;;;3.00;;
11614;SDS011;5863;52.832;4.758;2023-07-22T07:01:29;4.00;;;2.97;;
11614;SDS011;5863;52.832;4.758;2023-07-22T07:03:56;9.30;;;3.30;;
11614;SDS011;5863;52.832;4.758;2023-07-22T07:06:23;5.18;;;3.20;;
11614;SDS011;5863;52.832;4.758;2023-07-22T07:08:51;3.72;;;3.25;;
11614;SDS011;5863;52.832;4.758;2023-07-22T07:11:18;4.22;;;3.50;;
11614;SDS011;5863;52.832;4.758;2023-07-22T07:13:44;3.50;;;3.20;;
11614;SDS011;5863;52.832;4.758;2023-07-22T07:16:20;5.05;;;3.45;;
11614;SDS011;5863;52.832;4.758;2023-07-22T07:18:50;3.15;;;2.75;;
11614;SDS011;5863;52.832;4.758;2023-07-22T07:21:17;5.00;;;3.63;;
11614;SDS011;5863;52.832;4.758;2023-07-22T07:23:43;4.28;;;3.15;;
11614;SDS011;5863;52.832;4.758;2023-07-22T07:26:13;3.30;;;2.85;;
11614;SDS011;5863;52.832;4.758;2023-07-22T07:28:40;6.75;;;3.70;;
11614;SDS011;5863;52.832;4.758;2023-07-22T07:31:07;7.82;;;3.75;;
11614;SDS011;5863;52.832;4.758;2023-07-22T07:33:34;5.40;;;3.38;;
11614;SDS011;5863;52.832;4.758;2023-07-22T07:36:01;3.88;;;3.47;;
11614;SDS011;5863;52.832;4.758;2023-07-22T07:38:29;6.05;;;3.67;;
11614;SDS011;5863;52.832;4.758;2023-07-22T07:40:57;5.35;;;3.28;;
11614;SDS011;5863;52.832;4.758;2023-07-22T07:43:26;4.07;;;3.25;;
11614;SDS011;5863;52.832;4.758;2023-07-22T07:48:42;7.00;;;3.05;;
11614;SDS011;5863;52.832;4.758;2023-07-22T07:51:09;6.65;;;3.40;;
11614;SDS011;5863;52.832;4.758;2023-07-22T07:53:38;3.75;;;3.00;;
11614;SDS011;5863;52.832;4.758;2023-07-22T07:56:04;4.70;;;3.17;;
11614;SDS011;5863;52.832;4.758;2023-07-22T07:58:32;4.43;;;3.00;;
11614;SDS011;5863;52.832;4.758;2023-07-22T08:00:59;6.32;;;3.22;;
11614;SDS011;5863;52.832;4.758;2023-07-22T08:03:26;5.28;;;3.05;;
11614;SDS011;5863;52.832;4.758;2023-07-22T08:05:52;3.40;;;2.88;;
11614;SDS011;5863;52.832;4.758;2023-07-22T08:08:19;5.13;;;3.15;;
11614;SDS011;5863;52.832;4.758;2023-07-22T08:10:46;4.70;;;2.60;;
11614;SDS011;5863;52.832;4.758;2023-07-22T08:13:13;3.97;;;2.78;;
11614;SDS011;5863;52.832;4.758;2023-07-22T08:15:41;5.13;;;2.83;;
11614;SDS011;5863;52.832;4.758;2023-07-22T08:18:08;3.63;;;2.92;;
11614;SDS011;5863;52.832;4.758;2023-07-22T08:20:34;3.78;;;2.50;;
11614;SDS011;5863;52.832;4.758;2023-07-22T08:23:04;2.90;;;2.40;;
11614;SDS011;5863;52.832;4.758;2023-07-22T08:25:31;5.85;;;2.80;;
11614;SDS011;5863;52.832;4.758;2023-07-22T08:27:57;3.10;;;2.80;;
11614;SDS011;5863;52.832;4.758;2023-07-22T08:30:24;5.47;;;3.20;;
11614;SDS011;5863;52.832;4.758;2023-07-22T08:32:52;4.78;;;3.75;;
11614;SDS011;5863;52.832;4.758;2023-07-22T08:35:19;4.43;;;3.30;;
11614;SDS011;5863;52.832;4.758;2023-07-22T08:37:47;4.57;;;3.05;;
11614;SDS011;5863;52.832;4.758;2023-07-22T08:40:14;5.57;;;3.45;;
11614;SDS011;5863;52.832;4.758;2023-07-22T08:42:40;4.22;;;3.15;;
11614;SDS011;5863;52.832;4.758;2023-07-22T08:45:08;4.97;;;3.38;;
11614;SDS011;5863;52.832;4.758;2023-07-22T08:47:37;4.20;;;3.78;;
11614;SDS011;5863;52.832;4.758;2023-07-22T08:50:12;5.53;;;4.35;;
11614;SDS011;5863;52.832;4.758;2023-07-22T08:52:44;6.00;;;4.45;;
11614;SDS011;5863;52.832;4.758;2023-07-22T08:55:12;6.32;;;4.63;;
11614;SDS011;5863;52.832;4.758;2023-07-22T08:57:40;7.10;;;4.38;;
11614;SDS011;5863;52.832;4.758;2023-07-22T09:00:08;9.38;;;5.10;;
11614;SDS011;5863;52.832;4.758;2023-07-22T09:02:37;7.07;;;5.03;;
11614;SDS011;5863;52.832;4.758;2023-07-22T09:05:05;6.35;;;4.90;;
11614;SDS011;5863;52.832;4.758;2023-07-22T09:07:34;8.10;;;5.07;;
11614;SDS011;5863;52.832;4.758;2023-07-22T09:10:04;5.90;;;4.72;;
11614;SDS011;5863;52.832;4.758;2023-07-22T09:12:35;6.63;;;4.50;;
11614;SDS011;5863;52.832;4.758;2023-07-22T09:15:05;7.20;;;4.65;;
11614;SDS011;5863;52.832;4.758;2023-07-22T09:17:35;5.90;;;4.65;;
11614;SDS011;5863;52.832;4.758;2023-07-22T09:20:02;6.25;;;4.47;;
11614;SDS011;5863;52.832;4.758;2023-07-22T09:22:29;5.97;;;4.53;;
11614;SDS011;5863;52.832;4.758;2023-07-22T09:27:41;4.35;;;3.05;;
11614;SDS011;5863;52.832;4.758;2023-07-22T09:30:20;5.90;;;2.90;;
11614;SDS011;5863;52.832;4.758;2023-07-22T09:32:48;7.13;;;3.30;;
11614;SDS011;5863;52.832;4.758;2023-07-22T09:35:15;4.03;;;2.47;;
11614;SDS011;5863;52.832;4.758;2023-07-22T09:37:44;5.88;;;2.50;;
11614;SDS011;5863;52.832;4.758;2023-07-22T09:40:14;4.72;;;2.63;;
11614;SDS011;5863;52.832;4.758;2023-07-22T09:42:44;4.53;;;2.88;;
11614;SDS011;5863;52.832;4.758;2023-07-22T09:45:11;8.93;;;2.90;;
11614;SDS011;5863;52.832;4.758;2023-07-22T09:47:42;5.22;;;2.88;;
11614;SDS011;5863;52.832;4.758;2023-07-22T09:50:13;10.13;;;2.90;;
11614;SDS011;5863;52.832;4.758;2023-07-22T09:52:42;5.45;;;2.80;;
11614;SDS011;5863;52.832;4.758;2023-07-22T09:55:10;4.65;;;2.80;;
11614;SDS011;5863;52.832;4.758;2023-07-22T09:57:40;6.95;;;3.55;;
11614;SDS011;5863;52.832;4.758;2023-07-22T10:00:10;4.72;;;2.67;;
11614;SDS011;5863;52.832;4.758;2023-07-22T10:02:39;8.02;;;2.70;;
11614;SDS011;5863;52.832;4.758;2023-07-22T10:05:07;4.38;;;2.40;;
11614;SDS011;5863;52.832;4.758;2023-07-22T10:07:37;5.03;;;2.55;;
11614;SDS011;5863;52.832;4.758;2023-07-22T10:10:06;3.08;;;2.35;;
11614;SDS011;5863;52.832;4.758;2023-07-22T10:12:33;3.85;;;2.40;;
11614;SDS011;5863;52.832;4.758;2023-07-22T10:15:02;10.15;;;2.80;;
11614;SDS011;5863;52.832;4.758;2023-07-22T10:17:30;4.00;;;2.17;;
11614;SDS011;5863;52.832;4.758;2023-07-22T10:19:57;4.82;;;2.40;;
11614;SDS011;5863;52.832;4.758;2023-07-22T10:22:25;3.90;;;2.40;;
11614;SDS011;5863;52.832;4.758;2023-07-22T10:24:54;4.60;;;2.13;;
11614;SDS011;5863;52.832;4.758;2023-07-22T10:27:22;3.25;;;2.10;;
11614;SDS011;5863;52.832;4.758;2023-07-22T10:29:51;4.13;;;2.42;;
11614;SDS011;5863;52.832;4.758;2023-07-22T10:32:22;6.20;;;2.90;;
11614;SDS011;5863;52.832;4.758;2023-07-22T10:34:49;3.30;;;2.63;;
11614;SDS011;5863;52.832;4.758;2023-07-22T10:37:17;4.00;;;2.45;;
11614;SDS011;5863;52.832;4.758;2023-07-22T10:39:44;3.67;;;2.33;;
11614;SDS011;5863;52.832;4.758;2023-07-22T10:42:16;3.85;;;2.60;;
11614;SDS011;5863;52.832;4.758;2023-07-22T10:44:50;5.78;;;2.60;;
11614;SDS011;5863;52.832;4.758;2023-07-22T10:47:30;5.25;;;2.80;;
11614;SDS011;5863;52.832;4.758;2023-07-22T10:49:58;4.93;;;2.60;;
11614;SDS011;5863;52.832;4.758;2023-07-22T10:52:38;4.13;;;2.50;;
11614;SDS011;5863;52.832;4.758;2023-07-22T10:55:13;7.25;;;2.60;;
11614;SDS011;5863;52.832;4.758;2023-07-22T10:57:47;6.25;;;3.00;;
11614;SDS011;5863;52.832;4.758;2023-07-22T11:00:17;5.65;;;2.95;;
11614;SDS011;5863;52.832;4.758;2023-07-22T11:02:47;4.60;;;2.30;;
11614;SDS011;5863;52.832;4.758;2023-07-22T11:05:46;5.88;;;2.58;;
11614;SDS011;5863;52.832;4.758;2023-07-22T11:08:14;3.65;;;3.10;;
11614;SDS011;5863;52.832;4.758;2023-07-22T11:10:51;3.65;;;2.70;;
11614;SDS011;5863;52.832;4.758;2023-07-22T11:13:25;4.75;;;2.80;;
11614;SDS011;5863;52.832;4.758;2023-07-22T11:15:57;8.75;;;3.00;;
11614;SDS011;5863;52.832;4.758;2023-07-22T11:18:36;3.83;;;2.40;;
11614;SDS011;5863;52.832;4.758;2023-07-22T11:21:06;6.25;;;2.60;;
11614;SDS011;5863;52.832;4.758;2023-07-22T11:23:34;3.65;;;2.50;;
11614;SDS011;5863;52.832;4.758;2023-07-22T11:26:01;4.20;;;2.75;;
11614;SDS011;5863;52.832;4.758;2023-07-22T11:28:28;4.13;;;2.60;;
11614;SDS011;5863;52.832;4.758;2023-07-22T11:30:56;7.43;;;2.83;;
11614;SDS011;5863;52.832;4.758;2023-07-22T11:33:24;8.75;;;3.78;;
11614;SDS011;5863;52.832;4.758;2023-07-22T11:35:52;6.18;;;3.40;;
11614;SDS011;5863;52.832;4.758;2023-07-22T11:38:18;8.45;;;3.55;;
11614;SDS011;5863;52.832;4.758;2023-07-22T11:40:45;7.18;;;3.50;;
11614;SDS011;5863;52.832;4.758;2023-07-22T11:43:13;5.43;;;3.10;;
11614;SDS011;5863;52.832;4.758;2023-07-22T11:45:40;6.68;;;3.58;;
11614;SDS011;5863;52.832;4.758;2023-07-22T11:48:09;6.78;;;3.08;;
11614;SDS011;5863;52.832;4.758;2023-07-22T11:50:36;6.45;;;3.42;;
11614;SDS011;5863;52.832;4.758;2023-07-22T11:53:04;5.88;;;3.60;;
11614;SDS011;5863;52.832;4.758;2023-07-22T11:55:34;6.15;;;4.03;;
11614;SDS011;5863;52.832;4.758;2023-07-22T11:58:01;9.00;;;4.82;;
11614;SDS011;5863;52.832;4.758;2023-07-22T12:00:29;8.00;;;4.32;;
11614;SDS011;5863;52.832;4.758;2023-07-22T12:03:04;5.90;;;4.20;;
11614;SDS011;5863;52.832;4.758;2023-07-22T12:05:34;7.15;;;3.95;;
11614;SDS011;5863;52.832;4.758;2023-07-22T12:08:03;4.97;;;3.60;;
11614;SDS011;5863;52.832;4.758;2023-07-22T12:10:31;9.50;;;3.75;;
11614;SDS011;5863;52.832;4.758;2023-07-22T12:13:00;5.70;;;3.20;;
11614;SDS011;5863;52.832;4.758;2023-07-22T12:15:27;4.90;;;2.90;;
11614;SDS011;5863;52.832;4.758;2023-07-22T12:17:54;6.10;;;3.30;;
11614;SDS011;5863;52.832;4.758;2023-07-22T12:20:25;8.90;;;3.33;;
11614;SDS011;5863;52.832;4.758;2023-07-22T12:22:52;5.88;;;3.22;;
11614;SDS011;5863;52.832;4.758;2023-07-22T12:25:21;5.68;;;2.80;;
11614;SDS011;5863;52.832;4.758;2023-07-22T12:27:48;4.50;;;2.97;;
11614;SDS011;5863;52.832;4.758;2023-07-22T12:30:15;5.00;;;3.00;;
11614;SDS011;5863;52.832;4.758;2023-07-22T12:32:42;6.70;;;2.92;;
11614;SDS011;5863;52.832;4.758;2023-07-22T12:35:09;8.73;;;3.17;;
11614;SDS011;5863;52.832;4.758;2023-07-22T12:37:36;4.22;;;3.08;;
11614;SDS011;5863;52.832;4.758;2023-07-22T12:40:02;7.13;;;3.20;;
11614;SDS011;5863;52.832;4.758;2023-07-22T12:42:34;5.00;;;3.10;;
11614;SDS011;5863;52.832;4.758;2023-07-22T12:45:01;6.03;;;2.90;;
11614;SDS011;5863;52.832;4.758;2023-07-22T12:47:28;6.88;;;3.33;;
11614;SDS011;5863;52.832;4.758;2023-07-22T12:49:55;6.80;;;3.28;;
11614;SDS011;5863;52.832;4.758;2023-07-22T12:52:21;5.60;;;2.80;;
11614;SDS011;5863;52.832;4.758;2023-07-22T12:54:48;5.68;;;2.50;;
11614;SDS011;5863;52.832;4.758;2023-07-22T12:57:15;8.63;;;2.90;;
11614;SDS011;5863;52.832;4.758;2023-07-22T12:59:43;9.27;;;3.25;;
11614;SDS011;5863;52.832;4.758;2023-07-22T13:02:09;6.18;;;2.90;;
11614;SDS011;5863;52.832;4.758;2023-07-22T13:04:36;5.97;;;2.80;;
11614;SDS011;5863;52.832;4.758;2023-07-22T13:07:03;5.82;;;2.92;;
11614;SDS011;5863;52.832;4.758;2023-07-22T13:09:30;4.90;;;2.97;;
11614;SDS011;5863;52.832;4.758;2023-07-22T13:11:56;8.98;;;3.03;;
11614;SDS011;5863;52.832;4.758;2023-07-22T13:14:23;9.07;;;3.83;;
11614;SDS011;5863;52.832;4.758;2023-07-22T13:16:51;5.05;;;2.95;;
11614;SDS011;5863;52.832;4.758;2023-07-22T13:19:18;9.75;;;3.40;;
11614;SDS011;5863;52.832;4.758;2023-07-22T13:21:44;6.97;;;2.90;;
11614;SDS011;5863;52.832;4.758;2023-07-22T13:24:11;6.63;;;2.88;;
11614;SDS011;5863;52.832;4.758;2023-07-22T13:26:39;5.60;;;2.58;;
11614;SDS011;5863;52.832;4.758;2023-07-22T13:29:05;4.30;;;2.47;;
11614;SDS011;5863;52.832;4.758;2023-07-22T13:31:33;3.95;;;2.42;;
11614;SDS011;5863;52.832;4.758;2023-07-22T13:34:01;4.50;;;2.60;;
11614;SDS011;5863;52.832;4.758;2023-07-22T13:36:29;7.00;;;2.90;;
11614;SDS011;5863;52.832;4.758;2023-07-22T13:38:55;4.75;;;2.50;;
11614;SDS011;5863;52.832;4.758;2023-07-22T13:41:22;5.85;;;2.92;;
11614;SDS011;5863;52.832;4.758;2023-07-22T13:43:48;7.18;;;3.03;;
11614;SDS011;5863;52.832;4.758;2023-07-22T13:46:16;7.35;;;2.75;;
11614;SDS011;5863;52.832;4.758;2023-07-22T13:48:42;5.90;;;2.70;;
11614;SDS011;5863;52.832;4.758;2023-07-22T13:51:10;6.18;;;3.00;;
11614;SDS011;5863;52.832;4.758;2023-07-22T13:53:37;6.60;;;2.38;;
11614;SDS011;5863;52.832;4.758;2023-07-22T13:56:04;9.38;;;2.70;;
11614;SDS011;5863;52.832;4.758;2023-07-22T13:58:32;4.90;;;2.50;;
11614;SDS011;5863;52.832;4.758;2023-07-22T14:00:58;6.72;;;2.50;;
11614;SDS011;5863;52.832;4.758;2023-07-22T14:03:25;5.68;;;2.72;;
11614;SDS011;5863;52.832;4.758;2023-07-22T14:05:52;6.22;;;2.65;;
11614;SDS011;5863;52.832;4.758;2023-07-22T14:08:20;4.70;;;2.25;;
11614;SDS011;5863;52.832;4.758;2023-07-22T14:10:47;5.38;;;2.28;;
11614;SDS011;5863;52.832;4.758;2023-07-22T14:13:14;6.13;;;2.58;;
11614;SDS011;5863;52.832;4.758;2023-07-22T14:15:40;7.43;;;2.55;;
11614;SDS011;5863;52.832;4.758;2023-07-22T14:18:07;5.10;;;2.38;;
11614;SDS011;5863;52.832;4.758;2023-07-22T14:20:34;4.93;;;2.13;;
11614;SDS011;5863;52.832;4.758;2023-07-22T14:23:00;4.13;;;2.10;;
11614;SDS011;5863;52.832;4.758;2023-07-22T14:25:31;5.57;;;2.10;;
11614;SDS011;5863;52.832;4.758;2023-07-22T14:27:57;5.70;;;2.30;;
11614;SDS011;5863;52.832;4.758;2023-07-22T14:30:24;5.32;;;2.20;;
11614;SDS011;5863;52.832;4.758;2023-07-22T14:32:51;7.75;;;2.45;;
11614;SDS011;5863;52.832;4.758;2023-07-22T14:35:17;8.05;;;2.83;;
11614;SDS011;5863;52.832;4.758;2023-07-22T14:37:44;3.92;;;2.08;;
11614;SDS011;5863;52.832;4.758;2023-07-22T14:40:12;3.92;;;2.22;;
11614;SDS011;5863;52.832;4.758;2023-07-22T14:42:40;4.45;;;2.17;;
11614;SDS011;5863;52.832;4.758;2023-07-22T14:45:07;4.60;;;2.13;;
11614;SDS011;5863;52.832;4.758;2023-07-22T14:47:34;3.10;;;1.50;;
11614;SDS011;5863;52.832;4.758;2023-07-22T14:50:01;3.78;;;2.05;;
11614;SDS011;5863;52.832;4.758;2023-07-22T14:52:28;6.55;;;2.30;;
11614;SDS011;5863;52.832;4.758;2023-07-22T14:54:55;5.13;;;2.08;;
11614;SDS011;5863;52.832;4.758;2023-07-22T14:57:21;4.43;;;2.15;;
11614;SDS011;5863;52.832;4.758;2023-07-22T14:59:53;4.30;;;2.15;;
11614;SDS011;5863;52.832;4.758;2023-07-22T15:02:19;5.03;;;2.40;;
11614;SDS011;5863;52.832;4.758;2023-07-22T15:04:46;4.72;;;2.60;;
11614;SDS011;5863;52.832;4.758;2023-07-22T15:07:15;3.83;;;2.20;;
11614;SDS011;5863;52.832;4.758;2023-07-22T15:09:42;4.97;;;2.28;;